METAR Data
IDs: Format: Raw Decoded Include TAF

Data at: 1101 UTC 28 Sep 2021

LRFT 281000Z 09010KT 9999 SCT040 OVC060 19/10 Q1021 BLU BLU